Meadow Lands, Pennsylvania
Current Conditions -  °F | °C
As of 12:35 PM on Thursday 23 Oct 2014 (Local Time) from KAFJ Reporting Station
Few Clouds Few Clouds  
Wind Chill: 55°   Ceiling: Unl
Heat Index: 55°   Visibility: 10mi
Dew Point: 45°   Wind: 14mph
Humidity: 67%   Direction: 320°NW
Pressure: 30.14"   Gusts: 17mph
Location:  40.22°N, 80.22°W
Report Text: KAFJ 231635Z AUTO 32012G15KT 10SM FEW024 13/07 A3014 RMK AO1
Loading
Personal Weather Stations






























Interactive Weather Map
Tropical Storm Tracking
New forecast layout! Learn more

10-Day Weather Forecast

Advertisements
Track Severe Weather on mobile